createdAt,value
2022-09-22T00:01:25.675Z,5.10
2022-09-22T00:03:54.409Z,5.10
2022-09-22T00:08:49.315Z,4.80
2022-09-22T00:11:17.377Z,4.90
2022-09-22T00:13:45.451Z,4.90
2022-09-22T00:16:13.578Z,4.80
2022-09-22T00:18:40.174Z,4.80
2022-09-22T00:21:12.559Z,4.80
2022-09-22T00:23:39.517Z,4.90
2022-09-22T00:26:10.752Z,5.00
2022-09-22T00:28:38.281Z,4.90
2022-09-22T00:31:06.422Z,4.80
2022-09-22T00:33:33.002Z,4.90
2022-09-22T00:36:00.223Z,4.90
2022-09-22T00:38:26.870Z,5.00
2022-09-22T00:40:53.504Z,4.80
2022-09-22T00:43:21.490Z,4.80
2022-09-22T00:45:50.114Z,4.80
2022-09-22T00:48:19.448Z,4.70
2022-09-22T00:50:46.111Z,4.70
2022-09-22T00:53:14.001Z,4.80
2022-09-22T00:55:46.115Z,4.70
2022-09-22T00:58:14.518Z,4.40
2022-09-22T01:00:41.068Z,4.40
2022-09-22T01:03:09.610Z,4.60
2022-09-22T01:05:37.335Z,4.60
2022-09-22T01:08:03.944Z,4.60
2022-09-22T01:10:30.543Z,4.60
2022-09-22T01:13:22.718Z,4.60
2022-09-22T01:16:05.075Z,4.60
2022-09-22T01:22:13.960Z,4.50
2022-09-22T01:24:49.807Z,4.10
2022-09-22T01:27:31.707Z,4.30
2022-09-22T01:30:14.935Z,4.40
2022-09-22T01:32:44.854Z,4.40
2022-09-22T01:35:29.424Z,4.30
2022-09-22T01:38:00.896Z,4.30
2022-09-22T01:40:33.472Z,4.20
2022-09-22T01:43:11.834Z,4.10
2022-09-22T01:45:40.395Z,4.10
2022-09-22T01:48:11.880Z,4.10
2022-09-22T01:50:46.546Z,4.20
2022-09-22T01:53:14.548Z,4.20
2022-09-22T01:55:43.006Z,4.20
2022-09-22T01:58:12.714Z,4.20
2022-09-22T02:00:40.973Z,4.10
2022-09-22T02:03:10.325Z,4.10
2022-09-22T02:05:40.056Z,4.00
2022-09-22T02:08:09.917Z,4.10
2022-09-22T02:10:39.440Z,4.00
2022-09-22T02:13:05.993Z,4.00
2022-09-22T02:15:51.141Z,4.00
2022-09-22T02:18:22.991Z,3.80
2022-09-22T02:20:50.486Z,4.00
2022-09-22T02:23:17.192Z,4.00
2022-09-22T02:25:44.444Z,4.00
2022-09-22T02:28:12.799Z,4.00
2022-09-22T02:30:40.236Z,4.00
2022-09-22T02:33:06.905Z,4.10
2022-09-22T02:35:35.443Z,4.00
2022-09-22T02:38:19.009Z,4.00
2022-09-22T02:40:48.748Z,3.90
2022-09-22T02:43:15.319Z,4.00
2022-09-22T02:45:53.564Z,4.00
2022-09-22T02:48:23.489Z,4.00
2022-09-22T02:50:50.438Z,4.00
2022-09-22T02:53:17.634Z,4.10
2022-09-22T02:55:44.809Z,3.90
2022-09-22T02:58:12.801Z,3.80
2022-09-22T03:00:39.380Z,3.80
2022-09-22T03:03:05.937Z,3.80
2022-09-22T03:05:32.479Z,3.80
2022-09-22T03:07:59.037Z,3.80
2022-09-22T03:10:25.674Z,3.80
2022-09-22T03:13:14.935Z,3.80
2022-09-22T03:15:38.775Z,3.80
2022-09-22T03:18:05.340Z,3.60
2022-09-22T03:20:31.857Z,3.70
2022-09-22T03:22:58.374Z,3.70
2022-09-22T03:25:24.892Z,3.60
2022-09-22T03:27:51.418Z,3.60
2022-09-22T03:30:17.966Z,3.70
2022-09-22T03:32:44.493Z,3.40
2022-09-22T03:35:11.104Z,3.50
2022-09-22T03:37:37.694Z,3.50
2022-09-22T03:40:04.568Z,3.50
2022-09-22T03:42:32.849Z,3.50
2022-09-22T03:44:59.785Z,3.40
2022-09-22T03:49:53.275Z,3.50
2022-09-22T03:52:19.828Z,3.40
2022-09-22T03:54:46.365Z,3.10
2022-09-22T03:57:12.916Z,3.10
2022-09-22T03:59:39.503Z,3.40
2022-09-22T04:02:06.050Z,3.50
2022-09-22T04:04:32.631Z,3.40
2022-09-22T04:07:03.419Z,3.40
2022-09-22T04:09:33.355Z,3.30
2022-09-22T04:12:00.389Z,3.20
2022-09-22T04:14:27.260Z,3.40
2022-09-22T04:16:54.289Z,3.20
2022-09-22T04:19:20.914Z,3.30
2022-09-22T04:21:47.414Z,3.30
2022-09-22T04:24:13.931Z,3.30
2022-09-22T04:26:51.812Z,3.30
2022-09-22T04:29:27.180Z,3.20
2022-09-22T04:31:53.770Z,3.10
2022-09-22T04:34:20.270Z,3.10
2022-09-22T04:36:46.786Z,3.10
2022-09-22T04:39:13.290Z,3.00
2022-09-22T04:41:39.808Z,3.10
2022-09-22T04:46:33.406Z,2.90
2022-09-22T04:49:00.021Z,2.80
2022-09-22T04:51:26.544Z,2.90
2022-09-22T04:53:53.064Z,2.90
2022-09-22T04:56:19.589Z,2.90
2022-09-22T04:58:46.129Z,2.90
2022-09-22T05:01:12.792Z,3.00
2022-09-22T05:03:39.501Z,3.00
2022-09-22T05:06:06.343Z,3.00
2022-09-22T05:08:33.290Z,3.00
2022-09-22T05:10:59.826Z,3.00
2022-09-22T05:13:26.476Z,3.00
2022-09-22T05:15:53.024Z,2.80
2022-09-22T05:18:19.579Z,2.90
2022-09-22T05:20:46.096Z,3.00
2022-09-22T05:23:12.632Z,2.90
2022-09-22T05:25:39.194Z,3.00
2022-09-22T05:28:05.716Z,3.10
2022-09-22T05:30:32.276Z,3.10
2022-09-22T05:32:58.795Z,3.10
2022-09-22T05:35:25.776Z,3.20
2022-09-22T05:37:52.653Z,3.20
2022-09-22T05:40:20.312Z,3.20
2022-09-22T05:42:47.738Z,3.20
2022-09-22T05:45:14.794Z,3.10
2022-09-22T05:47:41.550Z,3.10
2022-09-22T05:50:08.783Z,3.10
2022-09-22T05:52:35.336Z,3.00
2022-09-22T05:55:02.000Z,3.00
2022-09-22T05:57:28.579Z,3.10
2022-09-22T05:59:55.376Z,3.10
2022-09-22T06:02:26.471Z,3.10
2022-09-22T06:04:54.084Z,3.10
2022-09-22T06:07:21.164Z,3.20
2022-09-22T06:09:47.978Z,3.20
2022-09-22T06:12:14.899Z,3.20
2022-09-22T06:14:41.428Z,3.20
2022-09-22T06:17:11.685Z,3.40
2022-09-22T06:19:39.042Z,3.40
2022-09-22T06:22:06.092Z,3.50
2022-09-22T06:24:32.750Z,3.60
2022-09-22T06:26:59.439Z,3.80
2022-09-22T06:29:26.801Z,3.80
2022-09-22T06:34:21.512Z,4.30
2022-09-22T06:36:48.603Z,4.60
2022-09-22T06:41:42.316Z,4.60
2022-09-22T06:44:10.483Z,5.20
2022-09-22T06:46:37.933Z,5.30
2022-09-22T06:49:04.611Z,5.40
2022-09-22T06:51:35.650Z,5.50
2022-09-22T06:54:06.333Z,5.60
2022-09-22T06:56:42.699Z,5.70
2022-09-22T06:59:16.793Z,5.90
2022-09-22T07:01:44.182Z,6.00
2022-09-22T07:04:11.618Z,6.10
2022-09-22T07:06:40.590Z,6.10
2022-09-22T07:09:07.851Z,6.30
2022-09-22T07:11:39.514Z,6.60
2022-09-22T07:14:07.311Z,6.60
2022-09-22T07:16:34.003Z,6.90
2022-09-22T07:19:00.561Z,6.90
2022-09-22T07:21:30.334Z,7.00
2022-09-22T07:23:57.719Z,7.00
2022-09-22T07:26:34.261Z,7.00
2022-09-22T07:29:02.184Z,7.00
2022-09-22T07:31:30.385Z,7.80
2022-09-22T07:34:00.223Z,7.00
2022-09-22T07:38:54.782Z,7.60
2022-09-22T07:43:52.626Z,7.90
2022-09-22T07:46:19.863Z,8.00
2022-09-22T07:48:49.363Z,8.20
2022-09-22T07:51:21.671Z,8.30
2022-09-22T07:53:50.581Z,8.40
2022-09-22T07:56:18.509Z,8.50
2022-09-22T07:58:52.307Z,8.50
2022-09-22T08:01:19.925Z,8.60
2022-09-22T08:03:47.309Z,8.50
2022-09-22T08:08:44.696Z,8.90
2022-09-22T08:11:15.575Z,8.90
2022-09-22T08:13:44.200Z,9.00
2022-09-22T08:16:11.583Z,9.20
2022-09-22T08:18:39.676Z,9.20
2022-09-22T08:21:06.980Z,9.30
2022-09-22T08:23:34.025Z,9.30
2022-09-22T08:26:05.459Z,9.40
2022-09-22T08:28:32.089Z,9.50
2022-09-22T08:30:59.338Z,9.40
2022-09-22T08:33:29.429Z,9.40
2022-09-22T08:35:57.045Z,9.80
2022-09-22T08:38:23.992Z,9.90
2022-09-22T08:40:59.802Z,10.00
2022-09-22T08:43:28.251Z,10.30
2022-09-22T08:45:55.154Z,10.50
2022-09-22T08:48:42.621Z,10.60
2022-09-22T08:51:36.386Z,10.70
2022-09-22T08:54:04.557Z,10.70
2022-09-22T08:56:37.020Z,11.00
2022-09-22T08:59:23.461Z,10.50
2022-09-22T09:02:08.158Z,11.00
2022-09-22T09:05:00.811Z,11.40
2022-09-22T09:07:43.188Z,11.50
2022-09-22T09:10:28.769Z,11.90
2022-09-22T09:13:02.284Z,11.90
2022-09-22T09:15:47.665Z,11.70
2022-09-22T09:18:21.210Z,12.20
2022-09-22T09:20:48.753Z,12.30
2022-09-22T09:23:18.280Z,12.50
2022-09-22T09:25:47.680Z,13.10
2022-09-22T09:28:18.261Z,13.30
2022-09-22T09:30:52.179Z,12.60
2022-09-22T09:33:32.628Z,12.60
2022-09-22T09:35:59.634Z,12.60
2022-09-22T09:38:30.882Z,12.60
2022-09-22T09:41:00.509Z,12.80
2022-09-22T09:43:28.158Z,13.30
2022-09-22T09:46:17.839Z,12.90
2022-09-22T09:49:03.386Z,13.20
2022-09-22T09:51:30.026Z,13.40
2022-09-22T09:53:57.623Z,13.20
2022-09-22T09:56:25.976Z,13.70
2022-09-22T09:59:18.994Z,15.60
2022-09-22T10:01:47.387Z,13.90
2022-09-22T10:04:18.745Z,14.20
2022-09-22T10:09:22.627Z,14.40
2022-09-22T10:11:57.568Z,14.50
2022-09-22T10:14:27.535Z,14.70
2022-09-22T10:16:54.165Z,16.60
2022-09-22T10:19:22.368Z,16.90
2022-09-22T10:21:49.395Z,15.10
2022-09-22T10:24:23.433Z,15.00
2022-09-22T10:26:57.439Z,15.70
2022-09-22T10:29:25.147Z,15.70
2022-09-22T10:32:10.368Z,16.80
2022-09-22T10:39:50.690Z,16.70
2022-09-22T10:42:31.829Z,16.90
2022-09-22T10:45:01.497Z,17.10
2022-09-22T10:47:38.252Z,17.50
2022-09-22T10:50:24.314Z,17.80
2022-09-22T10:53:21.749Z,18.10
2022-09-22T10:55:48.837Z,18.10
2022-09-22T10:58:21.805Z,17.60
2022-09-22T11:00:48.492Z,17.70
2022-09-22T11:03:40.384Z,17.60
2022-09-22T11:06:44.549Z,17.60
2022-09-22T11:09:35.904Z,17.60
2022-09-22T11:12:21.288Z,18.00
2022-09-22T11:15:08.452Z,18.00
2022-09-22T11:17:45.639Z,17.60
2022-09-22T11:20:23.320Z,17.80
2022-09-22T11:22:57.475Z,18.20
2022-09-22T11:25:40.701Z,19.40
2022-09-22T11:28:07.280Z,18.00
2022-09-22T11:30:43.083Z,18.40
2022-09-22T11:33:28.592Z,18.90
2022-09-22T11:36:15.482Z,19.90
2022-09-22T11:39:00.560Z,20.70
2022-09-22T11:41:31.375Z,20.50
2022-09-22T11:44:20.657Z,21.00
2022-09-22T11:47:22.897Z,21.00
2022-09-22T11:49:55.637Z,21.50
2022-09-22T11:52:43.723Z,21.70
2022-09-22T11:55:23.494Z,21.60
2022-09-22T11:57:51.874Z,21.50
2022-09-22T12:00:20.277Z,21.50
2022-09-22T12:03:02.129Z,21.10
2022-09-22T12:05:32.239Z,21.50
2022-09-22T12:08:23.075Z,21.60
2022-09-22T12:10:51.349Z,21.70
2022-09-22T12:13:18.031Z,21.80
2022-09-22T12:18:19.055Z,22.50
2022-09-22T12:20:54.704Z,22.50
2022-09-22T12:23:32.608Z,23.00
2022-09-22T12:26:01.772Z,23.10
2022-09-22T12:28:30.048Z,23.10
2022-09-22T12:31:05.150Z,23.50
2022-09-22T12:33:36.144Z,24.10
2022-09-22T12:36:03.687Z,23.50
2022-09-22T12:38:31.409Z,24.40
2022-09-22T12:40:59.968Z,24.40
2022-09-22T12:45:54.864Z,24.70
2022-09-22T12:48:24.019Z,25.60
2022-09-22T12:50:52.168Z,24.10
2022-09-22T12:53:21.858Z,25.10
2022-09-22T12:55:51.194Z,25.20
2022-09-22T12:58:21.013Z,25.70
2022-09-22T13:00:55.546Z,25.40
2022-09-22T13:03:25.298Z,25.00
2022-09-22T13:05:53.252Z,25.40
2022-09-22T13:08:22.936Z,24.80
2022-09-22T13:10:50.726Z,25.50
2022-09-22T13:15:45.752Z,26.20
2022-09-22T13:18:27.617Z,26.20
2022-09-22T13:20:54.262Z,26.50
2022-09-22T13:25:49.508Z,26.40
2022-09-22T13:28:18.082Z,26.80
2022-09-22T13:33:19.409Z,26.40
2022-09-22T13:35:46.310Z,25.90
2022-09-22T13:38:14.339Z,25.50
2022-09-22T13:40:45.600Z,24.50
2022-09-22T13:43:12.363Z,25.30
2022-09-22T13:45:39.742Z,25.90
2022-09-22T13:48:11.225Z,26.00
2022-09-22T13:50:45.311Z,26.20
2022-09-22T13:53:15.164Z,23.70
2022-09-22T13:58:12.559Z,21.50
2022-09-22T14:01:08.583Z,20.60
2022-09-22T14:03:35.604Z,21.40
2022-09-22T14:08:30.914Z,23.30
2022-09-22T14:13:41.431Z,24.60
2022-09-22T14:16:10.587Z,25.70
2022-09-22T14:21:08.146Z,25.90
2022-09-22T14:23:34.843Z,26.60
2022-09-22T14:28:29.775Z,26.80
2022-09-22T14:30:56.502Z,27.10
2022-09-22T14:35:52.211Z,28.10
2022-09-22T14:38:20.178Z,28.40
2022-09-22T14:40:50.685Z,28.00
2022-09-22T14:43:37.837Z,27.60
2022-09-22T15:15:54.774Z,26.70
2022-09-22T15:20:50.090Z,27.20
2022-09-22T15:25:44.698Z,27.20
2022-09-22T15:30:38.799Z,26.70
2022-09-22T15:35:38.016Z,26.80
2022-09-22T15:38:06.840Z,26.70
2022-09-22T15:43:13.415Z,26.10
2022-09-22T15:50:41.720Z,25.40
2022-09-22T15:53:08.774Z,26.00
2022-09-22T15:55:35.441Z,24.50
2022-09-22T16:00:36.618Z,24.20
2022-09-22T16:03:05.935Z,24.30
2022-09-22T16:05:34.470Z,25.10
2022-09-22T16:08:01.118Z,24.40
2022-09-22T16:10:27.797Z,24.50
2022-09-22T16:12:54.424Z,24.80
2022-09-22T16:15:21.086Z,24.70
2022-09-22T16:17:47.832Z,21.50
2022-09-22T16:22:41.779Z,19.60
2022-09-22T16:30:03.268Z,18.60
2022-09-22T16:32:30.029Z,19.80
2022-09-22T16:34:56.642Z,18.20
2022-09-22T16:37:23.301Z,18.00
2022-09-22T16:39:49.946Z,17.20
2022-09-22T16:42:22.871Z,18.10
2022-09-22T16:44:50.193Z,17.10
2022-09-22T16:47:21.220Z,16.90
2022-09-22T16:49:51.358Z,16.80
2022-09-22T16:52:18.895Z,16.90
2022-09-22T16:54:46.195Z,16.30
2022-09-22T16:57:12.806Z,16.30
2022-09-22T16:59:39.605Z,16.00
2022-09-22T17:02:06.350Z,15.90
2022-09-22T17:04:33.058Z,15.80
2022-09-22T17:06:59.613Z,15.40
2022-09-22T17:09:26.951Z,15.20
2022-09-22T17:11:53.645Z,15.70
2022-09-22T17:14:24.371Z,14.80
2022-09-22T17:16:53.814Z,15.40
2022-09-22T17:19:21.930Z,14.40
2022-09-22T17:21:49.408Z,13.90
2022-09-22T17:24:16.041Z,13.50
2022-09-22T17:26:50.213Z,13.00
2022-09-22T17:29:18.117Z,13.60
2022-09-22T17:31:48.035Z,13.20
2022-09-22T17:34:15.032Z,12.80
2022-09-22T17:36:41.652Z,12.60
2022-09-22T17:39:10.453Z,13.40
2022-09-22T17:41:41.468Z,12.90
2022-09-22T17:44:10.325Z,12.90
2022-09-22T17:46:57.014Z,12.80
2022-09-22T17:49:47.563Z,12.40
2022-09-22T17:52:33.464Z,12.10
2022-09-22T17:55:07.107Z,11.80
2022-09-22T17:57:34.904Z,12.40
2022-09-22T18:00:01.769Z,11.60
2022-09-22T18:02:32.144Z,11.50
2022-09-22T18:04:58.798Z,11.40
2022-09-22T18:07:26.282Z,11.10
2022-09-22T18:09:55.430Z,11.00
2022-09-22T18:12:24.585Z,10.90
2022-09-22T18:14:55.362Z,11.50
2022-09-22T18:17:23.689Z,11.40
2022-09-22T18:19:53.211Z,12.00
2022-09-22T18:22:22.161Z,11.20
2022-09-22T18:24:49.603Z,10.90
2022-09-22T18:27:17.772Z,10.80
2022-09-22T18:29:45.417Z,10.80
2022-09-22T18:32:11.970Z,10.80
2022-09-22T18:34:39.425Z,10.60
2022-09-22T18:37:06.089Z,10.70
2022-09-22T18:39:32.819Z,10.20
2022-09-22T18:41:59.463Z,10.20
2022-09-22T18:44:28.829Z,10.50
2022-09-22T18:46:56.362Z,10.50
2022-09-22T18:49:23.092Z,10.20
2022-09-22T18:51:49.710Z,10.10
2022-09-22T18:54:17.407Z,10.00
2022-09-22T18:56:45.027Z,9.80
2022-09-22T18:59:13.165Z,9.80
2022-09-22T19:01:40.087Z,9.70
2022-09-22T19:04:08.104Z,9.30
2022-09-22T19:09:21.212Z,9.00
2022-09-22T19:11:53.373Z,8.90
2022-09-22T19:14:21.100Z,10.20
2022-09-22T19:16:51.174Z,9.00
2022-09-22T19:19:19.037Z,8.80
2022-09-22T19:21:46.254Z,9.20
2022-09-22T19:24:12.851Z,8.50
2022-09-22T19:26:42.316Z,8.80
2022-09-22T19:31:37.111Z,9.40
2022-09-22T19:34:04.655Z,9.30
2022-09-22T19:36:31.726Z,9.20
2022-09-22T19:38:58.461Z,9.30
2022-09-22T19:41:26.765Z,9.20
2022-09-22T19:43:53.815Z,9.20
2022-09-22T19:46:20.925Z,9.90
2022-09-22T19:48:48.649Z,9.30
2022-09-22T19:51:15.315Z,9.20
2022-09-22T19:53:42.160Z,9.30
2022-09-22T19:56:09.223Z,9.10
2022-09-22T19:58:36.163Z,9.20
2022-09-22T20:01:06.422Z,9.00
2022-09-22T20:03:33.077Z,9.10
2022-09-22T20:05:59.712Z,9.00
2022-09-22T20:11:11.063Z,8.70
2022-09-22T20:14:01.280Z,8.30
2022-09-22T20:16:28.174Z,8.00
2022-09-22T20:18:55.008Z,7.60
2022-09-22T20:21:21.582Z,8.40
2022-09-22T20:26:15.094Z,8.20
2022-09-22T20:28:41.665Z,8.10
2022-09-22T20:31:11.775Z,8.20
2022-09-22T20:33:38.767Z,8.30
2022-09-22T20:36:06.023Z,8.20
2022-09-22T20:38:33.735Z,8.40
2022-09-22T20:41:00.869Z,8.30
2022-09-22T20:43:28.783Z,8.10
2022-09-22T20:46:03.687Z,8.00
2022-09-22T20:48:30.283Z,8.10
2022-09-22T20:50:57.748Z,8.10
2022-09-22T20:53:24.401Z,8.00
2022-09-22T20:55:58.822Z,8.00
2022-09-22T20:58:25.394Z,8.10
2022-09-22T21:00:51.957Z,8.00
2022-09-22T21:03:19.441Z,7.70
2022-09-22T21:05:46.035Z,7.90
2022-09-22T21:08:31.523Z,7.90
2022-09-22T21:10:58.065Z,7.80
2022-09-22T21:13:24.594Z,7.70
2022-09-22T21:18:18.385Z,7.40
2022-09-22T21:23:11.906Z,7.30
2022-09-22T21:25:38.916Z,7.30
2022-09-22T21:28:05.931Z,7.30
2022-09-22T21:30:32.647Z,7.20
2022-09-22T21:32:59.172Z,7.80
2022-09-22T21:35:25.894Z,7.20
2022-09-22T21:37:54.604Z,7.10
2022-09-22T21:40:21.916Z,7.10
2022-09-22T21:42:48.485Z,6.70
2022-09-22T21:45:15.144Z,7.10
2022-09-22T21:47:41.675Z,6.90
2022-09-22T21:50:08.485Z,7.00
2022-09-22T21:52:36.944Z,7.00
2022-09-22T21:55:03.664Z,6.80
2022-09-22T21:57:30.209Z,6.90
2022-09-22T21:59:56.967Z,6.50
2022-09-22T22:02:23.534Z,6.90
2022-09-22T22:04:50.213Z,6.90
2022-09-22T22:07:16.756Z,6.80
2022-09-22T22:09:43.381Z,6.80
2022-09-22T22:12:11.943Z,6.80
2022-09-22T22:19:34.452Z,6.50
2022-09-22T22:22:01.030Z,6.50
2022-09-22T22:24:40.816Z,6.60
2022-09-22T22:27:10.232Z,6.60
2022-09-22T22:29:38.724Z,6.60
2022-09-22T22:32:06.534Z,6.40
2022-09-22T22:34:33.439Z,6.50
2022-09-22T22:37:00.407Z,6.40
2022-09-22T22:39:27.016Z,6.40
2022-09-22T22:41:56.472Z,6.40
2022-09-22T22:46:50.503Z,6.20
2022-09-22T22:49:17.106Z,6.30
2022-09-22T22:51:43.786Z,6.30
2022-09-22T22:54:11.463Z,6.00
2022-09-22T22:59:08.515Z,6.00
2022-09-22T23:01:35.163Z,6.10
2022-09-22T23:04:02.904Z,6.20
2022-09-22T23:06:31.533Z,6.10
2022-09-22T23:08:58.071Z,6.10
2022-09-22T23:11:27.257Z,5.90
2022-09-22T23:13:56.116Z,5.90
2022-09-22T23:16:23.906Z,5.80
2022-09-22T23:18:51.258Z,5.90
2022-09-22T23:21:18.947Z,6.00
2022-09-22T23:23:45.820Z,5.90
2022-09-22T23:26:13.608Z,5.90
2022-09-22T23:28:40.309Z,5.80
2022-09-22T23:31:10.874Z,5.70
2022-09-22T23:33:39.060Z,5.70
2022-09-22T23:36:06.696Z,5.70
2022-09-22T23:38:34.204Z,5.60
2022-09-22T23:41:01.353Z,5.50
2022-09-22T23:45:55.265Z,5.30
2022-09-22T23:48:22.427Z,5.40
2022-09-22T23:50:53.306Z,5.40
2022-09-22T23:53:20.894Z,5.40
2022-09-22T23:55:47.463Z,5.50
2022-09-22T23:58:17.121Z,5.30
